sensor_id;sensor_type;location;lat;lon;timestamp;pressure;altitude;pressure_sealevel;temperature;humidity
19831;BME280;10076;52.008;4.708;2023-05-02T00:02:10;102096.50;;;13.11;100.00
19831;BME280;10076;52.008;4.708;2023-05-02T00:04:35;102098.13;;;13.27;100.00
19831;BME280;10076;52.008;4.708;2023-05-02T00:07:01;102098.81;;;13.31;100.00
19831;BME280;10076;52.008;4.708;2023-05-02T00:09:28;102093.22;;;13.21;100.00
19831;BME280;10076;52.008;4.708;2023-05-02T00:11:53;102095.94;;;13.20;100.00
19831;BME280;10076;52.008;4.708;2023-05-02T00:14:18;102090.06;;;13.15;100.00
19831;BME280;10076;52.008;4.708;2023-05-02T00:16:44;102102.47;;;13.14;100.00
19831;BME280;10076;52.008;4.708;2023-05-02T00:19:09;102107.50;;;13.19;100.00
19831;BME280;10076;52.008;4.708;2023-05-02T00:21:34;102104.19;;;13.15;100.00
19831;BME280;10076;52.008;4.708;2023-05-02T00:23:59;102104.66;;;13.36;100.00
19831;BME280;10076;52.008;4.708;2023-05-02T00:26:25;102106.75;;;13.31;100.00
19831;BME280;10076;52.008;4.708;2023-05-02T00:28:51;102108.34;;;13.47;100.00
19831;BME280;10076;52.008;4.708;2023-05-02T00:31:17;102119.34;;;13.55;100.00
19831;BME280;10076;52.008;4.708;2023-05-02T00:33:42;102113.31;;;13.39;100.00
19831;BME280;10076;52.008;4.708;2023-05-02T00:36:14;102106.94;;;13.42;100.00
19831;BME280;10076;52.008;4.708;2023-05-02T00:38:40;102115.19;;;13.37;100.00
19831;BME280;10076;52.008;4.708;2023-05-02T00:41:05;102105.16;;;13.28;100.00
19831;BME280;10076;52.008;4.708;2023-05-02T00:43:31;102095.56;;;13.54;100.00
19831;BME280;10076;52.008;4.708;2023-05-02T00:45:57;102105.13;;;13.42;100.00
19831;BME280;10076;52.008;4.708;2023-05-02T00:48:23;102109.09;;;13.35;100.00
19831;BME280;10076;52.008;4.708;2023-05-02T00:50:49;102114.03;;;13.55;100.00
19831;BME280;10076;52.008;4.708;2023-05-02T00:53:15;102118.38;;;13.70;100.00
19831;BME280;10076;52.008;4.708;2023-05-02T00:55:40;102109.28;;;13.60;100.00
19831;BME280;10076;52.008;4.708;2023-05-02T00:58:13;102122.28;;;13.51;100.00
19831;BME280;10076;52.008;4.708;2023-05-02T01:00:49;102123.81;;;13.41;100.00
19831;BME280;10076;52.008;4.708;2023-05-02T01:06:32;102118.03;;;13.48;100.00
19831;BME280;10076;52.008;4.708;2023-05-02T01:14:53;102141.50;;;13.40;100.00
19831;BME280;10076;52.008;4.708;2023-05-02T01:17:22;102139.06;;;13.51;100.00
19831;BME280;10076;52.008;4.708;2023-05-02T01:19:54;102136.81;;;13.45;100.00
19831;BME280;10076;52.008;4.708;2023-05-02T01:22:21;102136.22;;;13.68;100.00
19831;BME280;10076;52.008;4.708;2023-05-02T01:27:56;102149.88;;;13.48;100.00
19831;BME280;10076;52.008;4.708;2023-05-02T01:30:27;102142.19;;;13.30;100.00
19831;BME280;10076;52.008;4.708;2023-05-02T01:32:54;102146.66;;;13.43;100.00
19831;BME280;10076;52.008;4.708;2023-05-02T01:35:22;102143.06;;;13.44;100.00
19831;BME280;10076;52.008;4.708;2023-05-02T01:37:48;102150.72;;;13.35;100.00
19831;BME280;10076;52.008;4.708;2023-05-02T01:40:18;102146.44;;;13.18;100.00
19831;BME280;10076;52.008;4.708;2023-05-02T01:42:46;102149.56;;;13.39;100.00
19831;BME280;10076;52.008;4.708;2023-05-02T01:45:13;102149.31;;;13.57;100.00
19831;BME280;10076;52.008;4.708;2023-05-02T01:47:40;102151.00;;;13.44;100.00
19831;BME280;10076;52.008;4.708;2023-05-02T01:50:08;102160.84;;;13.42;100.00
19831;BME280;10076;52.008;4.708;2023-05-02T01:52:35;102161.16;;;13.52;100.00
19831;BME280;10076;52.008;4.708;2023-05-02T01:55:03;102169.59;;;13.44;100.00
19831;BME280;10076;52.008;4.708;2023-05-02T01:57:31;102175.72;;;13.45;100.00
19831;BME280;10076;52.008;4.708;2023-05-02T01:59:57;102173.66;;;13.50;100.00
19831;BME280;10076;52.008;4.708;2023-05-02T02:02:25;102174.22;;;13.41;100.00
19831;BME280;10076;52.008;4.708;2023-05-02T02:04:52;102189.47;;;13.37;100.00
19831;BME280;10076;52.008;4.708;2023-05-02T02:07:19;102188.63;;;13.37;100.00
19831;BME280;10076;52.008;4.708;2023-05-02T02:09:44;102196.13;;;13.44;100.00
19831;BME280;10076;52.008;4.708;2023-05-02T02:12:11;102190.81;;;13.44;100.00
19831;BME280;10076;52.008;4.708;2023-05-02T02:14:42;102190.03;;;13.28;100.00
19831;BME280;10076;52.008;4.708;2023-05-02T02:17:31;102198.38;;;13.36;100.00
19831;BME280;10076;52.008;4.708;2023-05-02T02:20:04;102199.31;;;13.21;100.00
19831;BME280;10076;52.008;4.708;2023-05-02T02:22:33;102209.84;;;13.37;100.00
19831;BME280;10076;52.008;4.708;2023-05-02T02:24:59;102203.88;;;13.33;100.00
19831;BME280;10076;52.008;4.708;2023-05-02T02:27:25;102208.97;;;13.36;100.00
19831;BME280;10076;52.008;4.708;2023-05-02T02:29:51;102214.19;;;13.24;100.00
19831;BME280;10076;52.008;4.708;2023-05-02T02:32:16;102210.22;;;13.45;100.00
19831;BME280;10076;52.008;4.708;2023-05-02T02:34:41;102213.16;;;13.40;100.00
19831;BME280;10076;52.008;4.708;2023-05-02T02:37:13;102215.59;;;13.29;100.00
19831;BME280;10076;52.008;4.708;2023-05-02T02:47:44;102237.88;;;12.98;100.00
19831;BME280;10076;52.008;4.708;2023-05-02T02:50:21;102230.16;;;13.09;100.00
19831;BME280;10076;52.008;4.708;2023-05-02T02:55:29;102232.66;;;12.96;100.00
19831;BME280;10076;52.008;4.708;2023-05-02T02:58:23;102239.03;;;13.08;100.00
19831;BME280;10076;52.008;4.708;2023-05-02T03:00:50;102238.53;;;13.16;100.00
19831;BME280;10076;52.008;4.708;2023-05-02T03:03:17;102233.28;;;13.15;100.00
19831;BME280;10076;52.008;4.708;2023-05-02T03:05:47;102240.44;;;12.99;100.00
19831;BME280;10076;52.008;4.708;2023-05-02T03:08:13;102241.66;;;12.94;100.00
19831;BME280;10076;52.008;4.708;2023-05-02T03:10:38;102249.06;;;13.03;100.00
19831;BME280;10076;52.008;4.708;2023-05-02T03:13:03;102251.91;;;13.00;100.00
19831;BME280;10076;52.008;4.708;2023-05-02T03:18:13;102261.03;;;13.10;100.00
19831;BME280;10076;52.008;4.708;2023-05-02T03:20:38;102259.41;;;13.07;100.00
19831;BME280;10076;52.008;4.708;2023-05-02T03:23:03;102254.72;;;12.81;100.00
19831;BME280;10076;52.008;4.708;2023-05-02T03:25:29;102260.47;;;12.89;100.00
19831;BME280;10076;52.008;4.708;2023-05-02T03:27:56;102260.97;;;12.96;100.00
19831;BME280;10076;52.008;4.708;2023-05-02T03:30:21;102265.16;;;12.84;100.00
19831;BME280;10076;52.008;4.708;2023-05-02T03:32:47;102274.66;;;12.88;100.00
19831;BME280;10076;52.008;4.708;2023-05-02T03:35:12;102274.81;;;12.85;100.00
19831;BME280;10076;52.008;4.708;2023-05-02T03:37:38;102276.19;;;12.92;100.00
19831;BME280;10076;52.008;4.708;2023-05-02T03:40:04;102277.41;;;12.87;100.00
19831;BME280;10076;52.008;4.708;2023-05-02T03:42:29;102280.66;;;12.92;100.00
19831;BME280;10076;52.008;4.708;2023-05-02T03:44:55;102292.97;;;12.93;100.00
19831;BME280;10076;52.008;4.708;2023-05-02T03:47:20;102288.41;;;12.95;100.00
19831;BME280;10076;52.008;4.708;2023-05-02T03:49:45;102297.16;;;12.97;100.00
19831;BME280;10076;52.008;4.708;2023-05-02T03:52:11;102298.34;;;12.91;100.00
19831;BME280;10076;52.008;4.708;2023-05-02T03:54:36;102299.47;;;12.87;100.00
19831;BME280;10076;52.008;4.708;2023-05-02T03:57:02;102303.94;;;12.87;100.00
19831;BME280;10076;52.008;4.708;2023-05-02T03:59:31;102297.91;;;12.68;100.00
19831;BME280;10076;52.008;4.708;2023-05-02T04:01:56;102299.38;;;12.58;100.00
19831;BME280;10076;52.008;4.708;2023-05-02T04:04:22;102303.56;;;12.62;100.00
19831;BME280;10076;52.008;4.708;2023-05-02T04:06:47;102314.22;;;12.45;100.00
19831;BME280;10076;52.008;4.708;2023-05-02T04:09:12;102312.78;;;12.55;100.00
19831;BME280;10076;52.008;4.708;2023-05-02T04:11:38;102312.63;;;12.58;100.00
19831;BME280;10076;52.008;4.708;2023-05-02T04:14:03;102317.41;;;12.67;100.00
19831;BME280;10076;52.008;4.708;2023-05-02T04:16:28;102320.97;;;12.66;100.00
19831;BME280;10076;52.008;4.708;2023-05-02T04:18:54;102329.28;;;12.60;100.00
19831;BME280;10076;52.008;4.708;2023-05-02T04:21:19;102328.88;;;12.52;100.00
19831;BME280;10076;52.008;4.708;2023-05-02T04:23:44;102326.63;;;12.60;100.00
19831;BME280;10076;52.008;4.708;2023-05-02T04:26:09;102320.16;;;12.65;100.00
19831;BME280;10076;52.008;4.708;2023-05-02T04:28:35;102324.56;;;12.80;100.00
19831;BME280;10076;52.008;4.708;2023-05-02T04:31:01;102335.75;;;12.87;100.00
19831;BME280;10076;52.008;4.708;2023-05-02T04:33:28;102339.63;;;12.80;100.00
19831;BME280;10076;52.008;4.708;2023-05-02T04:35:54;102347.75;;;12.77;100.00
19831;BME280;10076;52.008;4.708;2023-05-02T04:38:19;102345.63;;;12.83;100.00
19831;BME280;10076;52.008;4.708;2023-05-02T04:40:44;102355.94;;;12.89;100.00
19831;BME280;10076;52.008;4.708;2023-05-02T04:43:10;102365.25;;;12.96;100.00
19831;BME280;10076;52.008;4.708;2023-05-02T04:45:35;102363.31;;;12.83;100.00
19831;BME280;10076;52.008;4.708;2023-05-02T04:48:01;102370.28;;;12.85;100.00
19831;BME280;10076;52.008;4.708;2023-05-02T04:50:26;102372.53;;;12.93;100.00
19831;BME280;10076;52.008;4.708;2023-05-02T04:52:52;102376.69;;;12.97;100.00
19831;BME280;10076;52.008;4.708;2023-05-02T04:55:18;102386.03;;;13.04;100.00
19831;BME280;10076;52.008;4.708;2023-05-02T04:57:43;102385.78;;;12.93;100.00
19831;BME280;10076;52.008;4.708;2023-05-02T05:00:09;102393.13;;;12.88;100.00
19831;BME280;10076;52.008;4.708;2023-05-02T05:02:35;102394.47;;;12.95;100.00
19831;BME280;10076;52.008;4.708;2023-05-02T05:05:01;102392.16;;;12.89;100.00
19831;BME280;10076;52.008;4.708;2023-05-02T05:07:26;102392.50;;;12.98;100.00
19831;BME280;10076;52.008;4.708;2023-05-02T05:09:52;102392.56;;;12.81;100.00
19831;BME280;10076;52.008;4.708;2023-05-02T05:12:17;102398.47;;;12.71;100.00
19831;BME280;10076;52.008;4.708;2023-05-02T05:14:43;102400.75;;;12.94;100.00
19831;BME280;10076;52.008;4.708;2023-05-02T05:17:09;102398.66;;;12.83;100.00
19831;BME280;10076;52.008;4.708;2023-05-02T05:19:34;102399.22;;;12.73;100.00
19831;BME280;10076;52.008;4.708;2023-05-02T05:21:59;102400.69;;;12.78;100.00
19831;BME280;10076;52.008;4.708;2023-05-02T05:24:25;102407.53;;;12.82;100.00
19831;BME280;10076;52.008;4.708;2023-05-02T05:26:50;102403.47;;;12.92;100.00
19831;BME280;10076;52.008;4.708;2023-05-02T05:29:15;102407.00;;;13.08;100.00
19831;BME280;10076;52.008;4.708;2023-05-02T05:31:42;102414.34;;;12.88;100.00
19831;BME280;10076;52.008;4.708;2023-05-02T05:34:08;102418.44;;;12.93;100.00
19831;BME280;10076;52.008;4.708;2023-05-02T05:36:33;102418.44;;;12.93;100.00
19831;BME280;10076;52.008;4.708;2023-05-02T05:38:58;102427.00;;;13.13;100.00
19831;BME280;10076;52.008;4.708;2023-05-02T05:41:24;102431.88;;;13.21;100.00
19831;BME280;10076;52.008;4.708;2023-05-02T05:43:49;102432.41;;;13.27;100.00
19831;BME280;10076;52.008;4.708;2023-05-02T05:46:14;102443.34;;;13.37;100.00
19831;BME280;10076;52.008;4.708;2023-05-02T05:48:39;102446.59;;;13.26;100.00
19831;BME280;10076;52.008;4.708;2023-05-02T05:51:05;102451.72;;;13.29;100.00
19831;BME280;10076;52.008;4.708;2023-05-02T05:53:31;102459.88;;;13.42;100.00
19831;BME280;10076;52.008;4.708;2023-05-02T05:55:56;102460.81;;;13.41;100.00
19831;BME280;10076;52.008;4.708;2023-05-02T05:58:22;102463.22;;;13.45;100.00
19831;BME280;10076;52.008;4.708;2023-05-02T06:00:47;102464.53;;;13.52;100.00
19831;BME280;10076;52.008;4.708;2023-05-02T06:03:13;102475.50;;;13.62;100.00
19831;BME280;10076;52.008;4.708;2023-05-02T06:05:38;102480.09;;;13.74;100.00
19831;BME280;10076;52.008;4.708;2023-05-02T06:08:04;102480.22;;;13.57;100.00
19831;BME280;10076;52.008;4.708;2023-05-02T06:10:30;102477.69;;;13.69;100.00
19831;BME280;10076;52.008;4.708;2023-05-02T06:12:56;102487.47;;;13.84;100.00
19831;BME280;10076;52.008;4.708;2023-05-02T06:15:21;102490.66;;;14.04;100.00
19831;BME280;10076;52.008;4.708;2023-05-02T06:17:46;102497.59;;;14.07;100.00
19831;BME280;10076;52.008;4.708;2023-05-02T06:20:12;102494.19;;;13.89;100.00
19831;BME280;10076;52.008;4.708;2023-05-02T06:22:37;102497.84;;;14.02;100.00
19831;BME280;10076;52.008;4.708;2023-05-02T06:25:04;102496.75;;;14.36;100.00
19831;BME280;10076;52.008;4.708;2023-05-02T06:27:30;102502.28;;;14.47;100.00
19831;BME280;10076;52.008;4.708;2023-05-02T06:29:55;102502.75;;;14.39;100.00
19831;BME280;10076;52.008;4.708;2023-05-02T06:32:21;102511.72;;;14.23;100.00
19831;BME280;10076;52.008;4.708;2023-05-02T06:34:46;102520.31;;;14.42;100.00
19831;BME280;10076;52.008;4.708;2023-05-02T06:37:11;102520.22;;;14.43;100.00
19831;BME280;10076;52.008;4.708;2023-05-02T06:39:37;102521.47;;;14.38;100.00
19831;BME280;10076;52.008;4.708;2023-05-02T06:42:02;102531.25;;;14.22;100.00
19831;BME280;10076;52.008;4.708;2023-05-02T06:44:27;102536.19;;;14.14;100.00
19831;BME280;10076;52.008;4.708;2023-05-02T06:46:53;102542.91;;;14.04;100.00
19831;BME280;10076;52.008;4.708;2023-05-02T06:49:20;102547.28;;;14.05;100.00
19831;BME280;10076;52.008;4.708;2023-05-02T06:51:45;102553.06;;;14.13;100.00
19831;BME280;10076;52.008;4.708;2023-05-02T06:54:10;102553.50;;;13.90;100.00
19831;BME280;10076;52.008;4.708;2023-05-02T06:56:36;102551.69;;;13.75;100.00
19831;BME280;10076;52.008;4.708;2023-05-02T06:59:01;102553.41;;;13.91;100.00
19831;BME280;10076;52.008;4.708;2023-05-02T07:01:26;102561.81;;;13.84;100.00
19831;BME280;10076;52.008;4.708;2023-05-02T07:03:52;102565.41;;;13.83;100.00
19831;BME280;10076;52.008;4.708;2023-05-02T07:06:18;102563.34;;;14.03;100.00
19831;BME280;10076;52.008;4.708;2023-05-02T07:08:43;102561.09;;;14.27;100.00
19831;BME280;10076;52.008;4.708;2023-05-02T07:11:09;102560.72;;;14.33;100.00
19831;BME280;10076;52.008;4.708;2023-05-02T07:13:34;102566.00;;;14.48;100.00
19831;BME280;10076;52.008;4.708;2023-05-02T07:15:59;102573.00;;;14.35;100.00
19831;BME280;10076;52.008;4.708;2023-05-02T07:18:25;102577.13;;;14.54;100.00
19831;BME280;10076;52.008;4.708;2023-05-02T07:20:51;102587.41;;;14.74;100.00
19831;BME280;10076;52.008;4.708;2023-05-02T07:23:16;102588.59;;;14.84;100.00
19831;BME280;10076;52.008;4.708;2023-05-02T07:25:41;102582.91;;;15.04;100.00
19831;BME280;10076;52.008;4.708;2023-05-02T07:28:07;102577.44;;;15.35;100.00
19831;BME280;10076;52.008;4.708;2023-05-02T07:30:32;102584.44;;;15.50;100.00
19831;BME280;10076;52.008;4.708;2023-05-02T07:32:58;102588.88;;;15.63;100.00
19831;BME280;10076;52.008;4.708;2023-05-02T07:35:23;102596.03;;;15.63;100.00
19831;BME280;10076;52.008;4.708;2023-05-02T07:37:48;102592.28;;;15.25;100.00
19831;BME280;10076;52.008;4.708;2023-05-02T07:40:13;102604.56;;;14.98;100.00
19831;BME280;10076;52.008;4.708;2023-05-02T07:42:39;102600.97;;;14.56;100.00
19831;BME280;10076;52.008;4.708;2023-05-02T07:45:06;102610.78;;;14.40;100.00
19831;BME280;10076;52.008;4.708;2023-05-02T07:47:32;102607.31;;;14.53;100.00
19831;BME280;10076;52.008;4.708;2023-05-02T07:49:57;102618.75;;;14.69;100.00
19831;BME280;10076;52.008;4.708;2023-05-02T07:52:22;102604.72;;;14.81;100.00
19831;BME280;10076;52.008;4.708;2023-05-02T07:54:48;102606.53;;;14.81;100.00
19831;BME280;10076;52.008;4.708;2023-05-02T07:57:14;102608.00;;;15.14;100.00
19831;BME280;10076;52.008;4.708;2023-05-02T07:59:39;102610.31;;;15.34;100.00
19831;BME280;10076;52.008;4.708;2023-05-02T08:02:04;102621.53;;;15.53;100.00
19831;BME280;10076;52.008;4.708;2023-05-02T08:04:29;102623.22;;;15.68;100.00
19831;BME280;10076;52.008;4.708;2023-05-02T08:06:55;102623.44;;;16.05;100.00
19831;BME280;10076;52.008;4.708;2023-05-02T08:09:20;102626.13;;;16.31;100.00
19831;BME280;10076;52.008;4.708;2023-05-02T08:11:46;102626.22;;;16.56;100.00
19831;BME280;10076;52.008;4.708;2023-05-02T08:14:11;102631.16;;;16.62;100.00
19831;BME280;10076;52.008;4.708;2023-05-02T08:16:37;102634.78;;;16.61;100.00
19831;BME280;10076;52.008;4.708;2023-05-02T08:19:02;102633.94;;;16.61;100.00
19831;BME280;10076;52.008;4.708;2023-05-02T08:21:27;102636.34;;;16.51;100.00
19831;BME280;10076;52.008;4.708;2023-05-02T08:23:57;102628.69;;;16.33;100.00
19831;BME280;10076;52.008;4.708;2023-05-02T08:26:22;102637.41;;;16.08;100.00
19831;BME280;10076;52.008;4.708;2023-05-02T08:28:49;102640.38;;;16.04;100.00
19831;BME280;10076;52.008;4.708;2023-05-02T08:31:15;102650.59;;;16.24;100.00
19831;BME280;10076;52.008;4.708;2023-05-02T08:33:40;102648.16;;;16.47;100.00
19831;BME280;10076;52.008;4.708;2023-05-02T08:36:15;102647.28;;;16.73;100.00
19831;BME280;10076;52.008;4.708;2023-05-02T08:38:42;102649.16;;;17.10;100.00
19831;BME280;10076;52.008;4.708;2023-05-02T08:41:15;102651.09;;;17.57;100.00
19831;BME280;10076;52.008;4.708;2023-05-02T08:43:42;102658.06;;;18.08;100.00
19831;BME280;10076;52.008;4.708;2023-05-02T08:46:09;102662.88;;;18.62;100.00
19831;BME280;10076;52.008;4.708;2023-05-02T08:48:36;102665.34;;;18.99;97.18
19831;BME280;10076;52.008;4.708;2023-05-02T08:51:08;102668.09;;;19.21;97.60
19831;BME280;10076;52.008;4.708;2023-05-02T08:53:34;102668.25;;;19.42;95.82
19831;BME280;10076;52.008;4.708;2023-05-02T08:56:00;102664.25;;;19.58;96.29
19831;BME280;10076;52.008;4.708;2023-05-02T08:58:26;102679.13;;;19.95;89.60
19831;BME280;10076;52.008;4.708;2023-05-02T09:00:52;102669.88;;;19.99;86.25
19831;BME280;10076;52.008;4.708;2023-05-02T09:05:54;102670.94;;;19.74;91.11
19831;BME280;10076;52.008;4.708;2023-05-02T09:08:25;102674.22;;;19.89;87.50
19831;BME280;10076;52.008;4.708;2023-05-02T09:10:50;102680.03;;;20.37;84.08
19831;BME280;10076;52.008;4.708;2023-05-02T09:13:34;102689.22;;;21.38;79.75
19831;BME280;10076;52.008;4.708;2023-05-02T09:16:13;102689.75;;;22.22;75.32
19831;BME280;10076;52.008;4.708;2023-05-02T09:18:42;102687.66;;;21.86;74.63
19831;BME280;10076;52.008;4.708;2023-05-02T09:21:13;102688.50;;;21.36;73.01
19831;BME280;10076;52.008;4.708;2023-05-02T09:23:41;102695.31;;;20.99;74.67
19831;BME280;10076;52.008;4.708;2023-05-02T09:28:55;102684.00;;;21.16;75.47
19831;BME280;10076;52.008;4.708;2023-05-02T09:31:23;102691.44;;;20.92;75.63
19831;BME280;10076;52.008;4.708;2023-05-02T09:33:52;102697.53;;;20.94;71.85
19831;BME280;10076;52.008;4.708;2023-05-02T09:36:19;102697.50;;;20.74;73.95
19831;BME280;10076;52.008;4.708;2023-05-02T09:38:47;102704.75;;;20.52;72.91
19831;BME280;10076;52.008;4.708;2023-05-02T09:41:13;102701.38;;;20.70;73.38
19831;BME280;10076;52.008;4.708;2023-05-02T09:43:39;102708.00;;;20.77;70.09
19831;BME280;10076;52.008;4.708;2023-05-02T09:46:09;102712.38;;;20.36;71.05
19831;BME280;10076;52.008;4.708;2023-05-02T09:48:55;102712.22;;;21.72;71.13
19831;BME280;10076;52.008;4.708;2023-05-02T09:51:22;102710.59;;;24.43;62.59
19831;BME280;10076;52.008;4.708;2023-05-02T09:53:48;102723.97;;;24.79;52.08
19831;BME280;10076;52.008;4.708;2023-05-02T09:56:13;102727.66;;;24.43;53.76
19831;BME280;10076;52.008;4.708;2023-05-02T09:58:39;102719.00;;;23.58;52.62
19831;BME280;10076;52.008;4.708;2023-05-02T10:01:05;102723.34;;;22.76;54.93
19831;BME280;10076;52.008;4.708;2023-05-02T10:03:30;102722.06;;;22.80;59.33
19831;BME280;10076;52.008;4.708;2023-05-02T10:05:59;102716.63;;;25.67;56.00
19831;BME280;10076;52.008;4.708;2023-05-02T10:08:26;102725.50;;;28.18;48.64
19831;BME280;10076;52.008;4.708;2023-05-02T10:10:55;102731.50;;;30.07;44.08
19831;BME280;10076;52.008;4.708;2023-05-02T10:13:22;102722.00;;;29.15;39.14
19831;BME280;10076;52.008;4.708;2023-05-02T10:15:54;102729.00;;;29.54;40.62
19831;BME280;10076;52.008;4.708;2023-05-02T10:18:42;102737.09;;;30.83;39.17
19831;BME280;10076;52.008;4.708;2023-05-02T10:21:19;102737.28;;;32.33;38.36
19831;BME280;10076;52.008;4.708;2023-05-02T10:23:49;102735.22;;;33.78;34.49
19831;BME280;10076;52.008;4.708;2023-05-02T10:26:17;102738.41;;;34.89;33.56
19831;BME280;10076;52.008;4.708;2023-05-02T10:28:45;102738.97;;;35.77;32.51
19831;BME280;10076;52.008;4.708;2023-05-02T10:31:14;102746.34;;;35.34;29.35
19831;BME280;10076;52.008;4.708;2023-05-02T10:33:40;102739.88;;;33.78;30.87
19831;BME280;10076;52.008;4.708;2023-05-02T10:36:07;102741.13;;;33.50;31.14
19831;BME280;10076;52.008;4.708;2023-05-02T10:38:34;102747.41;;;34.15;31.43
19831;BME280;10076;52.008;4.708;2023-05-02T10:41:07;102741.72;;;34.10;29.27
19831;BME280;10076;52.008;4.708;2023-05-02T10:43:34;102733.78;;;33.63;30.14
19831;BME280;10076;52.008;4.708;2023-05-02T10:46:01;102745.50;;;35.09;30.11
19831;BME280;10076;52.008;4.708;2023-05-02T10:48:27;102746.38;;;35.03;29.33
19831;BME280;10076;52.008;4.708;2023-05-02T10:50:55;102733.53;;;33.45;28.48
19831;BME280;10076;52.008;4.708;2023-05-02T10:53:32;102737.94;;;30.49;31.70
19831;BME280;10076;52.008;4.708;2023-05-02T10:56:20;102735.59;;;30.81;32.37
19831;BME280;10076;52.008;4.708;2023-05-02T10:58:48;102734.84;;;33.30;31.74
19831;BME280;10076;52.008;4.708;2023-05-02T11:06:29;102754.28;;;37.96;26.81
19831;BME280;10076;52.008;4.708;2023-05-02T11:11:41;102758.66;;;39.75;26.31
19831;BME280;10076;52.008;4.708;2023-05-02T11:14:12;102751.84;;;39.99;24.35
19831;BME280;10076;52.008;4.708;2023-05-02T11:19:22;102754.03;;;38.71;24.80
19831;BME280;10076;52.008;4.708;2023-05-02T11:21:47;102756.56;;;39.33;25.04
19831;BME280;10076;52.008;4.708;2023-05-02T11:24:39;102761.16;;;40.99;24.15
19831;BME280;10076;52.008;4.708;2023-05-02T11:29:58;102754.50;;;40.74;22.99
19831;BME280;10076;52.008;4.708;2023-05-02T11:32:26;102757.47;;;40.04;22.75
19831;BME280;10076;52.008;4.708;2023-05-02T11:35:23;102761.16;;;41.26;23.26
19831;BME280;10076;52.008;4.708;2023-05-02T11:37:59;102756.63;;;41.82;22.98
19831;BME280;10076;52.008;4.708;2023-05-02T11:40:26;102753.06;;;42.33;21.63
19831;BME280;10076;52.008;4.708;2023-05-02T11:42:52;102753.91;;;42.43;20.78
19831;BME280;10076;52.008;4.708;2023-05-02T11:45:18;102755.75;;;42.23;20.99
19831;BME280;10076;52.008;4.708;2023-05-02T11:47:46;102751.34;;;43.63;21.37
19831;BME280;10076;52.008;4.708;2023-05-02T11:50:12;102764.41;;;43.42;20.04
19831;BME280;10076;52.008;4.708;2023-05-02T11:52:39;102762.75;;;43.56;19.05
19831;BME280;10076;52.008;4.708;2023-05-02T11:55:06;102761.19;;;42.54;19.15
19831;BME280;10076;52.008;4.708;2023-05-02T11:57:33;102778.06;;;41.92;20.17
19831;BME280;10076;52.008;4.708;2023-05-02T11:59:59;102772.78;;;41.23;20.69
19831;BME280;10076;52.008;4.708;2023-05-02T12:02:43;102768.91;;;40.28;20.50
19831;BME280;10076;52.008;4.708;2023-05-02T12:05:10;102783.25;;;41.16;20.16
19831;BME280;10076;52.008;4.708;2023-05-02T12:07:43;102782.84;;;41.29;19.75
19831;BME280;10076;52.008;4.708;2023-05-02T12:10:13;102772.16;;;42.25;20.57
19831;BME280;10076;52.008;4.708;2023-05-02T12:12:42;102778.25;;;42.78;18.84
19831;BME280;10076;52.008;4.708;2023-05-02T12:15:09;102781.38;;;43.26;19.18
19831;BME280;10076;52.008;4.708;2023-05-02T12:17:40;102782.41;;;42.80;19.07
19831;BME280;10076;52.008;4.708;2023-05-02T12:20:06;102772.16;;;42.25;20.54
19831;BME280;10076;52.008;4.708;2023-05-02T12:22:33;102778.03;;;41.87;20.88
19831;BME280;10076;52.008;4.708;2023-05-02T12:24:59;102773.25;;;38.66;22.08
19831;BME280;10076;52.008;4.708;2023-05-02T12:27:25;102767.25;;;36.61;22.35
19831;BME280;10076;52.008;4.708;2023-05-02T12:29:51;102771.06;;;37.19;22.48
19831;BME280;10076;52.008;4.708;2023-05-02T12:32:30;102771.94;;;40.11;21.45
19831;BME280;10076;52.008;4.708;2023-05-02T12:34:57;102780.03;;;40.55;20.94
19831;BME280;10076;52.008;4.708;2023-05-02T12:37:23;102785.38;;;42.59;20.02
19831;BME280;10076;52.008;4.708;2023-05-02T12:39:49;102794.69;;;44.13;19.20
19831;BME280;10076;52.008;4.708;2023-05-02T12:42:16;102784.53;;;44.47;18.78
19831;BME280;10076;52.008;4.708;2023-05-02T12:44:43;102790.19;;;44.90;18.18
19831;BME280;10076;52.008;4.708;2023-05-02T12:47:15;102785.75;;;42.16;19.10
19831;BME280;10076;52.008;4.708;2023-05-02T12:49:52;102779.06;;;40.23;20.57
19831;BME280;10076;52.008;4.708;2023-05-02T12:52:21;102777.41;;;36.07;21.60
19831;BME280;10076;52.008;4.708;2023-05-02T12:55:20;102778.88;;;33.80;24.36
19831;BME280;10076;52.008;4.708;2023-05-02T12:57:47;102777.19;;;32.55;25.92
19831;BME280;10076;52.008;4.708;2023-05-02T13:00:15;102779.94;;;31.94;26.17
19831;BME280;10076;52.008;4.708;2023-05-02T13:02:40;102781.16;;;31.37;25.67
19831;BME280;10076;52.008;4.708;2023-05-02T13:05:16;102783.63;;;31.53;26.39
19831;BME280;10076;52.008;4.708;2023-05-02T13:07:41;102776.91;;;31.13;27.01
19831;BME280;10076;52.008;4.708;2023-05-02T13:10:07;102786.75;;;31.08;26.90
19831;BME280;10076;52.008;4.708;2023-05-02T13:12:33;102786.38;;;31.80;26.35
19831;BME280;10076;52.008;4.708;2023-05-02T13:15:02;102794.50;;;31.73;25.48
19831;BME280;10076;52.008;4.708;2023-05-02T13:17:27;102785.91;;;30.43;26.90
19831;BME280;10076;52.008;4.708;2023-05-02T13:19:53;102794.84;;;29.35;28.03
19831;BME280;10076;52.008;4.708;2023-05-02T13:22:18;102784.69;;;27.68;30.46
19831;BME280;10076;52.008;4.708;2023-05-02T13:24:44;102786.91;;;26.01;31.54
19831;BME280;10076;52.008;4.708;2023-05-02T13:27:10;102781.88;;;25.04;33.83
19831;BME280;10076;52.008;4.708;2023-05-02T13:29:35;102781.78;;;23.79;35.70